Time;durP1;ratioP1;P1;durP2;ratioP2;P2;SDS_P1;SDS_P2;PMS_P1;PMS_P2;Temp;Humidity;BMP_temperature;BMP_pressure;BME280_temperature;BME280_humidity;BME280_pressure;Samples;Min_cycle;Max_cycle;Signal;HPM_P1;HPM_P2
2022/12/29 00:01:38;;;;;;;15.45;1.80;;;;;;;;;;6063333;23;20014;-64
2022/12/29 00:04:06;;;;;;;9.68;1.00;;;;;;;;;;6071236;23;20093;-64
2022/12/29 00:06:41;;;;;;;12.38;1.55;;;;;;;;;;6034265;23;20480;-64
2022/12/29 00:09:09;;;;;;;11.43;0.93;;;;;;;;;;6047753;23;20414;-64
2022/12/29 00:11:37;;;;;;;12.85;1.65;;;;;;;;;;6060881;23;20018;-64
2022/12/29 00:16:52;;;;;;;12.88;1.05;;;;;;;;;;6071446;23;20352;-64
2022/12/29 00:36:16;;;;;;;8.83;0.90;;;;;;;;;;6059649;23;20018;-64
2022/12/29 00:44:19;;;;;;;6.80;0.90;;;;;;;;;;6074483;23;20106;-63
2022/12/29 00:46:46;;;;;;;7.03;0.82;;;;;;;;;;6062830;23;20350;-64
2022/12/29 00:49:32;;;;;;;12.40;0.80;;;;;;;;;;6071007;23;20029;-64
2022/12/29 00:52:01;;;;;;;11.45;1.05;;;;;;;;;;6071909;23;20045;-64
2022/12/29 00:54:30;;;;;;;11.05;0.90;;;;;;;;;;6061987;23;20090;-64
2022/12/29 00:56:57;;;;;;;15.05;1.73;;;;;;;;;;6072351;23;20073;-64
2022/12/29 00:59:27;;;;;;;11.60;1.27;;;;;;;;;;6053291;23;20632;-64
2022/12/29 01:01:55;;;;;;;9.90;1.10;;;;;;;;;;6076319;23;20645;-64
2022/12/29 01:04:24;;;;;;;14.63;1.70;;;;;;;;;;6063496;23;20267;-64
2022/12/29 01:06:51;;;;;;;17.58;2.50;;;;;;;;;;6068547;23;20169;-65
2022/12/29 01:12:10;;;;;;;11.13;1.10;;;;;;;;;;6038537;23;20022;-65
2022/12/29 01:14:39;;;;;;;12.13;1.20;;;;;;;;;;6064188;23;20015;-65
2022/12/29 01:17:07;;;;;;;14.90;1.85;;;;;;;;;;6069396;23;20390;-65
2022/12/29 01:19:35;;;;;;;13.57;1.42;;;;;;;;;;6064631;23;20026;-62
2022/12/29 01:22:02;;;;;;;11.60;1.80;;;;;;;;;;6072271;23;20018;-65
2022/12/29 01:24:33;;;;;;;12.45;1.60;;;;;;;;;;6069684;23;20024;-62
2022/12/29 01:27:01;;;;;;;12.20;1.37;;;;;;;;;;6058235;23;20102;-63
2022/12/29 01:29:29;;;;;;;19.92;2.42;;;;;;;;;;6070341;23;20046;-65
2022/12/29 01:31:58;;;;;;;9.13;1.05;;;;;;;;;;6064219;23;20521;-64
2022/12/29 01:34:26;;;;;;;9.85;1.40;;;;;;;;;;6070801;23;20046;-65
2022/12/29 01:36:53;;;;;;;14.45;2.03;;;;;;;;;;6062299;23;20434;-62
2022/12/29 01:39:21;;;;;;;13.43;1.10;;;;;;;;;;6070862;23;20018;-64
2022/12/29 01:41:49;;;;;;;12.38;1.33;;;;;;;;;;6062648;23;20025;-65
2022/12/29 01:44:40;;;;;;;10.77;1.50;;;;;;;;;;6073902;23;20014;-62
2022/12/29 01:47:09;;;;;;;9.70;1.27;;;;;;;;;;6070970;23;20062;-63
2022/12/29 01:49:37;;;;;;;14.68;1.83;;;;;;;;;;6066337;23;20049;-63
2022/12/29 01:52:06;;;;;;;10.00;1.47;;;;;;;;;;6065509;23;20076;-63
2022/12/29 01:54:36;;;;;;;13.57;1.30;;;;;;;;;;6069709;23;20121;-63
2022/12/29 01:57:05;;;;;;;17.25;1.55;;;;;;;;;;6064516;23;20015;-63
2022/12/29 01:59:35;;;;;;;10.70;1.58;;;;;;;;;;6069971;23;20022;-62
2022/12/29 02:02:02;;;;;;;13.38;2.00;;;;;;;;;;6066289;23;20053;-64
2022/12/29 02:04:36;;;;;;;8.73;1.57;;;;;;;;;;6058295;23;20369;-63
2022/12/29 02:07:04;;;;;;;13.63;1.30;;;;;;;;;;6062144;23;20069;-63
2022/12/29 02:09:38;;;;;;;11.27;1.27;;;;;;;;;;6072270;23;20045;-63
2022/12/29 02:12:06;;;;;;;17.20;1.50;;;;;;;;;;6070660;23;20058;-63
2022/12/29 02:14:33;;;;;;;12.57;1.33;;;;;;;;;;6039561;23;20456;-63
2022/12/29 02:17:06;;;;;;;12.93;1.60;;;;;;;;;;6071339;23;20339;-63
2022/12/29 02:19:52;;;;;;;12.57;1.50;;;;;;;;;;6065780;23;20018;-63
2022/12/29 02:22:24;;;;;;;11.50;1.15;;;;;;;;;;6061781;23;20014;-63
2022/12/29 02:25:20;;;;;;;8.43;1.20;;;;;;;;;;6041766;23;20022;-63
2022/12/29 02:27:55;;;;;;;9.98;1.27;;;;;;;;;;6063206;23;20037;-60
2022/12/29 02:30:44;;;;;;;10.47;1.33;;;;;;;;;;6065889;23;20383;-63
2022/12/29 02:33:19;;;;;;;13.48;1.08;;;;;;;;;;6069154;23;20042;-62
2022/12/29 02:35:53;;;;;;;12.10;1.10;;;;;;;;;;6038245;23;20169;-63
2022/12/29 02:38:24;;;;;;;11.95;1.30;;;;;;;;;;6064138;23;20030;-65
2022/12/29 02:40:54;;;;;;;13.50;1.60;;;;;;;;;;6071016;23;20015;-64
2022/12/29 02:43:25;;;;;;;9.63;1.90;;;;;;;;;;6062423;23;20871;-63
2022/12/29 02:45:56;;;;;;;11.30;1.40;;;;;;;;;;6066828;23;20023;-62
2022/12/29 02:48:25;;;;;;;10.57;1.13;;;;;;;;;;6066117;23;20402;-63
2022/12/29 02:50:55;;;;;;;12.00;1.85;;;;;;;;;;6045507;23;20095;-62
2022/12/29 02:56:06;;;;;;;3.60;0.80;;;;;;;;;;6067789;23;20346;-63
2022/12/29 02:58:33;;;;;;;17.58;1.67;;;;;;;;;;6067051;23;20549;-63
2022/12/29 03:01:12;;;;;;;12.02;1.20;;;;;;;;;;6055817;23;20442;-63
2022/12/29 03:03:46;;;;;;;18.63;1.50;;;;;;;;;;6067095;23;20097;-62
2022/12/29 03:06:26;;;;;;;9.38;1.10;;;;;;;;;;6076018;23;20053;-62
2022/12/29 03:08:56;;;;;;;10.97;1.30;;;;;;;;;;6070288;23;20041;-60
2022/12/29 03:17:04;;;;;;;11.57;1.88;;;;;;;;;;6073336;23;20018;-62
2022/12/29 03:19:35;;;;;;;8.57;1.05;;;;;;;;;;6065126;23;20097;-63
2022/12/29 03:24:51;;;;;;;7.72;1.83;;;;;;;;;;6061385;23;20069;-61
2022/12/29 03:27:20;;;;;;;6.55;0.88;;;;;;;;;;6074750;23;20026;-63
2022/12/29 03:29:54;;;;;;;15.23;1.02;;;;;;;;;;6063926;23;20033;-63
2022/12/29 03:32:24;;;;;;;13.90;1.88;;;;;;;;;;6057708;23;20699;-60
2022/12/29 03:34:51;;;;;;;7.67;0.90;;;;;;;;;;6067208;23;20089;-63
2022/12/29 03:37:21;;;;;;;7.18;1.00;;;;;;;;;;6073947;23;20045;-63
2022/12/29 03:39:49;;;;;;;6.68;0.88;;;;;;;;;;6066475;23;20053;-63
2022/12/29 03:42:23;;;;;;;11.73;0.90;;;;;;;;;;6069422;23;20065;-63
2022/12/29 03:44:54;;;;;;;8.98;0.82;;;;;;;;;;6068454;23;20073;-62
2022/12/29 03:47:23;;;;;;;7.10;0.80;;;;;;;;;;6071728;23;20018;-63
2022/12/29 03:49:51;;;;;;;6.80;1.08;;;;;;;;;;6059601;23;20073;-63
2022/12/29 03:52:19;;;;;;;5.63;0.60;;;;;;;;;;6072940;23;20022;-63
2022/12/29 03:54:46;;;;;;;8.13;0.95;;;;;;;;;;6066726;23;20014;-63
2022/12/29 03:57:16;;;;;;;10.27;1.13;;;;;;;;;;6071721;23;20030;-63
2022/12/29 03:59:43;;;;;;;8.17;1.10;;;;;;;;;;6069131;23;20086;-63
2022/12/29 04:02:13;;;;;;;8.88;0.80;;;;;;;;;;6051530;23;20049;-60
2022/12/29 04:04:42;;;;;;;7.18;0.90;;;;;;;;;;6076062;23;20015;-63
2022/12/29 04:07:10;;;;;;;6.50;0.70;;;;;;;;;;6076238;23;20018;-62
2022/12/29 04:09:37;;;;;;;6.72;0.45;;;;;;;;;;6063372;23;20085;-62
2022/12/29 04:12:05;;;;;;;6.53;0.50;;;;;;;;;;6068564;23;20023;-63
2022/12/29 04:14:33;;;;;;;5.93;0.88;;;;;;;;;;6073732;23;20477;-62
2022/12/29 04:17:01;;;;;;;4.85;0.50;;;;;;;;;;6061855;23;20098;-63
2022/12/29 04:19:29;;;;;;;10.23;1.02;;;;;;;;;;6067961;23;20049;-63
2022/12/29 04:21:59;;;;;;;6.60;1.13;;;;;;;;;;6069607;23;20034;-63
2022/12/29 04:24:27;;;;;;;6.23;0.63;;;;;;;;;;6058954;23;20021;-63
2022/12/29 04:26:55;;;;;;;9.00;1.23;;;;;;;;;;6044634;23;20093;-63
2022/12/29 04:29:23;;;;;;;10.10;0.90;;;;;;;;;;6067060;23;20018;-63
2022/12/29 04:31:50;;;;;;;7.68;0.90;;;;;;;;;;6067455;23;20042;-63
2022/12/29 04:34:18;;;;;;;7.85;0.70;;;;;;;;;;6069678;23;20014;-62
2022/12/29 04:36:45;;;;;;;9.10;1.00;;;;;;;;;;6064606;23;20106;-62
2022/12/29 04:39:17;;;;;;;6.05;0.85;;;;;;;;;;6068828;23;20256;-63
2022/12/29 04:41:46;;;;;;;6.15;0.80;;;;;;;;;;6070900;23;20017;-62
2022/12/29 04:44:14;;;;;;;13.50;1.05;;;;;;;;;;6067307;23;20018;-61
2022/12/29 04:46:41;;;;;;;4.60;0.70;;;;;;;;;;6071510;23;20018;-62
2022/12/29 04:49:09;;;;;;;5.80;1.30;;;;;;;;;;6060326;23;20025;-63
2022/12/29 04:51:36;;;;;;;7.35;0.77;;;;;;;;;;6072512;23;20034;-63
2022/12/29 04:54:04;;;;;;;6.25;0.55;;;;;;;;;;6061109;23;20617;-63
2022/12/29 04:56:33;;;;;;;9.15;1.65;;;;;;;;;;6071586;23;20042;-63
2022/12/29 04:59:00;;;;;;;4.65;0.60;;;;;;;;;;6035910;23;20512;-62
2022/12/29 05:01:28;;;;;;;11.43;1.37;;;;;;;;;;6065583;23;20645;-62
2022/12/29 05:03:56;;;;;;;8.35;1.00;;;;;;;;;;6071703;23;20026;-62
2022/12/29 05:06:24;;;;;;;8.05;0.75;;;;;;;;;;6064396;23;20014;-62
2022/12/29 05:08:51;;;;;;;7.10;0.75;;;;;;;;;;6073391;23;20038;-63
2022/12/29 05:11:19;;;;;;;8.75;0.90;;;;;;;;;;6067277;23;20410;-62
2022/12/29 05:13:48;;;;;;;12.80;1.27;;;;;;;;;;6038931;23;20105;-63
2022/12/29 05:16:15;;;;;;;7.55;0.90;;;;;;;;;;6070537;23;20050;-63
2022/12/29 05:18:43;;;;;;;6.50;0.43;;;;;;;;;;6063219;23;20041;-63
2022/12/29 05:21:13;;;;;;;8.52;0.60;;;;;;;;;;6064647;23;20509;-63
2022/12/29 05:23:41;;;;;;;5.50;0.60;;;;;;;;;;6047114;23;20033;-63
2022/12/29 05:26:08;;;;;;;7.77;0.63;;;;;;;;;;6036769;23;20011;-63
2022/12/29 05:28:36;;;;;;;8.63;0.90;;;;;;;;;;6070083;23;20045;-62
2022/12/29 05:31:05;;;;;;;6.78;0.73;;;;;;;;;;6065744;23;20056;-62
2022/12/29 05:33:32;;;;;;;4.03;0.73;;;;;;;;;;6070243;23;20033;-62
2022/12/29 05:36:04;;;;;;;5.32;0.60;;;;;;;;;;6066193;23;20053;-63
2022/12/29 05:38:31;;;;;;;3.83;0.57;;;;;;;;;;6044676;23;20069;-63
2022/12/29 05:40:59;;;;;;;8.20;0.70;;;;;;;;;;6061585;23;20018;-62
2022/12/29 05:43:27;;;;;;;6.03;0.70;;;;;;;;;;6072074;23;20022;-63
2022/12/29 05:45:54;;;;;;;6.47;0.50;;;;;;;;;;6062339;23;20014;-62
2022/12/29 05:48:23;;;;;;;6.63;0.60;;;;;;;;;;6069052;23;20159;-63
2022/12/29 05:50:51;;;;;;;7.83;0.90;;;;;;;;;;6062886;23;20536;-63
2022/12/29 05:53:19;;;;;;;7.88;0.70;;;;;;;;;;6070569;23;20018;-63
2022/12/29 05:55:47;;;;;;;6.32;0.70;;;;;;;;;;6062785;23;20050;-63
2022/12/29 05:58:15;;;;;;;4.15;0.45;;;;;;;;;;6071832;23;20019;-62
2022/12/29 06:00:43;;;;;;;8.45;0.50;;;;;;;;;;6059658;23;20014;-63
2022/12/29 06:03:11;;;;;;;5.37;0.87;;;;;;;;;;6071237;23;20372;-62
2022/12/29 06:05:45;;;;;;;5.00;0.60;;;;;;;;;;6063374;23;20025;-62
2022/12/29 06:08:12;;;;;;;5.57;0.60;;;;;;;;;;6070781;23;20014;-62
2022/12/29 06:10:40;;;;;;;7.70;1.08;;;;;;;;;;6055116;23;20101;-63
2022/12/29 06:13:11;;;;;;;11.48;0.80;;;;;;;;;;6067995;23;20058;-63
2022/12/29 06:15:39;;;;;;;6.33;0.93;;;;;;;;;;6068761;23;20026;-62
2022/12/29 06:18:08;;;;;;;3.88;0.63;;;;;;;;;;6056807;23;20474;-63
2022/12/29 06:20:39;;;;;;;6.65;0.85;;;;;;;;;;6067652;23;20019;-63
2022/12/29 06:23:08;;;;;;;8.15;0.60;;;;;;;;;;6064507;23;20050;-63
2022/12/29 06:25:36;;;;;;;7.47;0.95;;;;;;;;;;6045769;23;20105;-63
2022/12/29 06:28:05;;;;;;;7.60;0.63;;;;;;;;;;6065121;23;20046;-62
2022/12/29 06:30:32;;;;;;;6.35;0.73;;;;;;;;;;6068299;23;20046;-63
2022/12/29 06:33:00;;;;;;;10.25;1.00;;;;;;;;;;6061501;23;20390;-63
2022/12/29 06:35:28;;;;;;;8.00;1.20;;;;;;;;;;6074453;23;20074;-62
2022/12/29 06:37:56;;;;;;;6.25;0.90;;;;;;;;;;6056306;23;20591;-63
2022/12/29 06:40:24;;;;;;;7.77;0.93;;;;;;;;;;6070793;23;20014;-63
2022/12/29 06:42:52;;;;;;;12.13;0.90;;;;;;;;;;6061353;23;20018;-62
2022/12/29 06:45:20;;;;;;;5.78;0.85;;;;;;;;;;6046462;23;21032;-62
2022/12/29 06:47:47;;;;;;;7.30;0.90;;;;;;;;;;6061056;23;20018;-62
2022/12/29 06:50:15;;;;;;;4.40;0.60;;;;;;;;;;6068119;23;20022;-62
2022/12/29 06:52:43;;;;;;;7.67;0.60;;;;;;;;;;6062523;23;20114;-59
2022/12/29 06:55:11;;;;;;;8.00;0.50;;;;;;;;;;6046992;23;20018;-59
2022/12/29 06:57:40;;;;;;;11.38;0.52;;;;;;;;;;6059232;23;20019;-59
2022/12/29 07:00:09;;;;;;;7.35;0.52;;;;;;;;;;6064730;23;20057;-59
2022/12/29 07:02:36;;;;;;;6.35;0.50;;;;;;;;;;6059946;23;20469;-59
2022/12/29 07:05:04;;;;;;;6.37;0.90;;;;;;;;;;6072197;23;20353;-59
2022/12/29 07:07:32;;;;;;;8.73;0.57;;;;;;;;;;6061876;23;20022;-59
2022/12/29 07:10:00;;;;;;;14.15;1.33;;;;;;;;;;6066629;23;20315;-59
2022/12/29 07:12:27;;;;;;;9.13;0.80;;;;;;;;;;6068357;23;20019;-59
2022/12/29 07:14:56;;;;;;;9.90;0.82;;;;;;;;;;6065876;23;20022;-59
2022/12/29 07:17:24;;;;;;;4.93;0.70;;;;;;;;;;6072372;23;20014;-59
2022/12/29 07:19:52;;;;;;;11.80;0.73;;;;;;;;;;6061304;23;20496;-59
2022/12/29 07:22:19;;;;;;;11.70;0.88;;;;;;;;;;6069885;23;20058;-63
2022/12/29 07:24:47;;;;;;;8.45;0.80;;;;;;;;;;6062521;23;20450;-62
2022/12/29 07:27:15;;;;;;;8.07;0.98;;;;;;;;;;6071156;23;20050;-62
2022/12/29 07:29:43;;;;;;;7.47;0.60;;;;;;;;;;6061975;23;20057;-62
2022/12/29 07:32:12;;;;;;;8.20;0.65;;;;;;;;;;6072302;23;20060;-63
2022/12/29 07:34:40;;;;;;;8.82;0.50;;;;;;;;;;6037257;23;20026;-63
2022/12/29 07:37:07;;;;;;;4.05;0.88;;;;;;;;;;6064881;23;20446;-64
2022/12/29 07:39:35;;;;;;;4.22;0.57;;;;;;;;;;6008460;23;20034;-65
2022/12/29 07:42:03;;;;;;;3.77;0.40;;;;;;;;;;6014215;23;20019;-65
2022/12/29 07:44:31;;;;;;;10.13;0.50;;;;;;;;;;6002950;23;20409;-64
2022/12/29 07:46:59;;;;;;;2.65;0.40;;;;;;;;;;6010301;23;20042;-64
2022/12/29 07:49:30;;;;;;;5.88;0.43;;;;;;;;;;6003260;23;20021;-64
2022/12/29 07:51:57;;;;;;;4.72;0.35;;;;;;;;;;6015277;23;20352;-64
2022/12/29 07:54:25;;;;;;;6.13;0.40;;;;;;;;;;6006605;23;20020;-64
2022/12/29 07:56:53;;;;;;;6.25;0.60;;;;;;;;;;6015852;23;20094;-64
2022/12/29 07:59:24;;;;;;;3.33;0.32;;;;;;;;;;6011935;23;20114;-64
2022/12/29 08:01:52;;;;;;;4.15;0.40;;;;;;;;;;6014538;23;20015;-64
2022/12/29 08:04:19;;;;;;;5.78;0.32;;;;;;;;;;6006189;23;20454;-64
2022/12/29 08:06:48;;;;;;;5.73;0.40;;;;;;;;;;6012760;23;20019;-64
2022/12/29 08:09:16;;;;;;;8.68;0.30;;;;;;;;;;6007996;23;20023;-64
2022/12/29 08:11:49;;;;;;;6.53;0.47;;;;;;;;;;6011778;23;20087;-64
2022/12/29 08:14:16;;;;;;;5.22;0.30;;;;;;;;;;6018293;23;20019;-64
2022/12/29 08:16:44;;;;;;;4.35;0.50;;;;;;;;;;6004144;23;20012;-64
2022/12/29 08:19:12;;;;;;;2.70;0.50;;;;;;;;;;6013122;23;20046;-64
2022/12/29 08:21:40;;;;;;;3.22;0.25;;;;;;;;;;6005776;23;20019;-64
2022/12/29 08:24:09;;;;;;;4.35;0.43;;;;;;;;;;6014309;23;20047;-64
2022/12/29 08:26:36;;;;;;;5.35;0.30;;;;;;;;;;6008349;23;20125;-64
2022/12/29 08:29:04;;;;;;;5.65;0.70;;;;;;;;;;6016472;23;20451;-64
2022/12/29 08:31:32;;;;;;;6.03;0.30;;;;;;;;;;6006778;23;20538;-65
2022/12/29 08:34:01;;;;;;;5.22;0.60;;;;;;;;;;6012904;23;20030;-65
2022/12/29 08:36:29;;;;;;;4.07;0.43;;;;;;;;;;6011950;23;20033;-65
2022/12/29 08:38:56;;;;;;;4.45;0.30;;;;;;;;;;6056319;23;20028;-64
2022/12/29 08:41:25;;;;;;;3.38;0.25;;;;;;;;;;6062611;23;20015;-65
2022/12/29 08:43:53;;;;;;;2.60;0.27;;;;;;;;;;6072645;23;20022;-65
2022/12/29 08:46:20;;;;;;;3.88;0.30;;;;;;;;;;6061835;23;20025;-65
2022/12/29 08:48:48;;;;;;;3.58;0.30;;;;;;;;;;6074229;23;20018;-66
2022/12/29 08:51:16;;;;;;;5.20;0.50;;;;;;;;;;6061674;23;20022;-65
2022/12/29 08:53:51;;;;;;;4.22;0.50;;;;;;;;;;6063484;23;20042;-65
2022/12/29 08:56:18;;;;;;;4.53;0.30;;;;;;;;;;6067599;23;20018;-65
2022/12/29 08:58:47;;;;;;;5.10;0.38;;;;;;;;;;6068377;23;20096;-65
2022/12/29 09:01:15;;;;;;;4.00;0.45;;;;;;;;;;6062836;23;20018;-65
2022/12/29 09:03:43;;;;;;;6.32;0.50;;;;;;;;;;6063877;23;20041;-65
2022/12/29 09:06:31;;;;;;;7.28;0.77;;;;;;;;;;6068238;23;20029;-64
2022/12/29 09:09:06;;;;;;;4.53;0.37;;;;;;;;;;6061989;23;20212;-65
2022/12/29 09:11:38;;;;;;;4.20;0.73;;;;;;;;;;6072114;23;20098;-65
2022/12/29 09:14:07;;;;;;;2.60;0.20;;;;;;;;;;6063891;23;20315;-64
2022/12/29 09:16:35;;;;;;;6.18;0.52;;;;;;;;;;6063196;23;20139;-64
2022/12/29 09:19:03;;;;;;;4.57;0.50;;;;;;;;;;6068945;23;20077;-65
2022/12/29 09:21:31;;;;;;;4.80;0.30;;;;;;;;;;6062332;23;20866;-65
2022/12/29 09:23:59;;;;;;;6.50;0.35;;;;;;;;;;6073712;23;20885;-65
2022/12/29 09:26:26;;;;;;;4.60;0.40;;;;;;;;;;6062829;23;20093;-65
2022/12/29 09:28:54;;;;;;;4.32;0.30;;;;;;;;;;6071423;23;20026;-65
2022/12/29 09:31:24;;;;;;;7.97;0.40;;;;;;;;;;6063612;23;20069;-65
2022/12/29 09:33:52;;;;;;;6.83;0.47;;;;;;;;;;6069315;23;20049;-65
2022/12/29 09:36:20;;;;;;;4.03;0.40;;;;;;;;;;6068987;23;20565;-66
2022/12/29 09:38:47;;;;;;;4.65;0.30;;;;;;;;;;6044154;23;20022;-66
2022/12/29 09:41:19;;;;;;;4.03;0.30;;;;;;;;;;6061052;23;20698;-66
2022/12/29 09:43:53;;;;;;;6.00;0.38;;;;;;;;;;6058648;23;20018;-66
2022/12/29 09:46:25;;;;;;;4.57;0.50;;;;;;;;;;6059696;23;20646;-65
2022/12/29 09:48:58;;;;;;;5.00;0.60;;;;;;;;;;6042341;23;20375;-65
2022/12/29 09:51:29;;;;;;;6.13;0.90;;;;;;;;;;6073289;23;20021;-65
2022/12/29 09:53:59;;;;;;;7.75;0.50;;;;;;;;;;6063179;23;20049;-66
2022/12/29 09:56:27;;;;;;;6.90;0.50;;;;;;;;;;6069879;23;20582;-66
2022/12/29 09:58:58;;;;;;;8.50;0.53;;;;;;;;;;6063196;23;20046;-66
2022/12/29 10:01:31;;;;;;;7.90;0.70;;;;;;;;;;6072954;23;20015;-65
2022/12/29 10:04:02;;;;;;;4.30;0.55;;;;;;;;;;6062567;23;20063;-65
2022/12/29 10:06:37;;;;;;;8.43;0.68;;;;;;;;;;6070346;23;20023;-65
2022/12/29 10:09:27;;;;;;;8.68;0.77;;;;;;;;;;6068619;23;20027;-66
2022/12/29 10:12:02;;;;;;;6.63;0.50;;;;;;;;;;6067521;23;20323;-65
2022/12/29 10:14:36;;;;;;;8.52;0.57;;;;;;;;;;6072710;23;20021;-67
2022/12/29 10:17:11;;;;;;;11.25;1.33;;;;;;;;;;6064686;23;20281;-67
2022/12/29 10:19:46;;;;;;;12.65;0.98;;;;;;;;;;6061687;23;20018;-67
2022/12/29 10:22:20;;;;;;;10.10;0.68;;;;;;;;;;6043225;23;20481;-62
2022/12/29 10:24:49;;;;;;;7.70;0.53;;;;;;;;;;6063963;23;20028;-68
2022/12/29 10:27:18;;;;;;;6.97;0.65;;;;;;;;;;6072615;23;20097;-66
2022/12/29 10:29:49;;;;;;;6.13;0.60;;;;;;;;;;6036678;23;20014;-66
2022/12/29 10:32:26;;;;;;;10.32;0.70;;;;;;;;;;6064336;23;20097;-66
2022/12/29 10:34:56;;;;;;;6.78;0.60;;;;;;;;;;6076525;23;20101;-60
2022/12/29 10:37:28;;;;;;;6.87;0.50;;;;;;;;;;6039710;23;20061;-66
2022/12/29 10:40:15;;;;;;;8.10;0.98;;;;;;;;;;6066802;23;20030;-66
2022/12/29 10:42:45;;;;;;;6.35;0.68;;;;;;;;;;6060476;23;20077;-67
2022/12/29 10:45:14;;;;;;;7.90;0.50;;;;;;;;;;6042648;23;20453;-66
2022/12/29 10:47:48;;;;;;;9.60;0.60;;;;;;;;;;6063688;23;20089;-66
2022/12/29 10:50:16;;;;;;;7.17;0.50;;;;;;;;;;6070689;23;20018;-66
2022/12/29 10:52:44;;;;;;;7.32;0.55;;;;;;;;;;6061157;23;20015;-66
2022/12/29 10:55:13;;;;;;;7.82;0.60;;;;;;;;;;6072135;23;20014;-66
2022/12/29 10:57:43;;;;;;;5.75;0.65;;;;;;;;;;6060083;23;20633;-66
2022/12/29 11:00:13;;;;;;;6.53;0.40;;;;;;;;;;6067494;23;20038;-66
2022/12/29 11:02:54;;;;;;;8.00;0.70;;;;;;;;;;6068657;23;20042;-66
2022/12/29 11:05:25;;;;;;;6.15;0.70;;;;;;;;;;6061928;23;20466;-66
2022/12/29 11:07:54;;;;;;;10.55;1.73;;;;;;;;;;6074007;23;20049;-65
2022/12/29 11:10:30;;;;;;;3.95;0.43;;;;;;;;;;6064208;23;20045;-66
2022/12/29 11:12:58;;;;;;;6.93;0.47;;;;;;;;;;6068585;23;20485;-66
2022/12/29 11:15:26;;;;;;;7.63;0.47;;;;;;;;;;6061921;23;20484;-66
2022/12/29 11:18:04;;;;;;;8.27;0.70;;;;;;;;;;6072927;23;20045;-64
2022/12/29 11:20:34;;;;;;;9.93;0.80;;;;;;;;;;6075793;23;20023;-65
2022/12/29 11:23:03;;;;;;;10.30;0.90;;;;;;;;;;6062459;23;20015;-65
2022/12/29 11:25:30;;;;;;;6.18;0.65;;;;;;;;;;6042194;23;20049;-65
2022/12/29 11:28:00;;;;;;;9.63;0.80;;;;;;;;;;6064169;23;20454;-66
2022/12/29 11:30:29;;;;;;;4.57;0.60;;;;;;;;;;6070713;23;20407;-65
2022/12/29 11:32:58;;;;;;;7.20;0.65;;;;;;;;;;6036288;23;20537;-66
2022/12/29 11:35:33;;;;;;;6.00;0.40;;;;;;;;;;6069498;23;20018;-66
2022/12/29 11:38:02;;;;;;;10.30;0.60;;;;;;;;;;6070521;23;20042;-66
2022/12/29 11:40:31;;;;;;;11.27;1.10;;;;;;;;;;6070606;23;20021;-65
2022/12/29 11:43:02;;;;;;;6.78;0.60;;;;;;;;;;6061139;23;20014;-66
2022/12/29 11:45:32;;;;;;;7.45;0.98;;;;;;;;;;6071627;23;20410;-66
2022/12/29 11:48:06;;;;;;;8.15;0.60;;;;;;;;;;6062361;23;20106;-66
2022/12/29 11:50:34;;;;;;;8.98;0.60;;;;;;;;;;6067715;23;20521;-65
2022/12/29 11:53:04;;;;;;;17.23;1.00;;;;;;;;;;6070360;23;20068;-65
2022/12/29 11:55:32;;;;;;;4.75;0.68;;;;;;;;;;6063983;23;20064;-66
2022/12/29 11:58:01;;;;;;;11.02;1.00;;;;;;;;;;6072877;23;20052;-66
2022/12/29 12:00:33;;;;;;;7.93;0.50;;;;;;;;;;6067385;23;20029;-66
2022/12/29 12:03:04;;;;;;;6.35;1.00;;;;;;;;;;6072763;23;20042;-66
2022/12/29 12:05:36;;;;;;;8.03;0.87;;;;;;;;;;6063628;23;20778;-66
2022/12/29 12:08:09;;;;;;;6.28;0.70;;;;;;;;;;6072724;23;20022;-66
2022/12/29 12:10:42;;;;;;;8.07;0.88;;;;;;;;;;6070533;23;20338;-66
2022/12/29 12:13:18;;;;;;;8.98;0.85;;;;;;;;;;6066012;23;20113;-65
2022/12/29 12:15:48;;;;;;;8.82;0.82;;;;;;;;;;6070089;23;20450;-65
2022/12/29 12:18:29;;;;;;;6.83;0.53;;;;;;;;;;6062217;23;20025;-65
2022/12/29 12:21:00;;;;;;;10.45;0.98;;;;;;;;;;6074316;23;20049;-66
2022/12/29 12:23:33;;;;;;;13.13;1.55;;;;;;;;;;6039326;23;20026;-66
2022/12/29 12:26:05;;;;;;;7.38;0.95;;;;;;;;;;6060142;23;20082;-66
2022/12/29 12:28:38;;;;;;;9.63;0.65;;;;;;;;;;6073818;23;20061;-66
2022/12/29 12:31:07;;;;;;;9.17;0.90;;;;;;;;;;6063753;23;20793;-65
2022/12/29 12:33:39;;;;;;;6.45;0.93;;;;;;;;;;6068598;23;20014;-66
2022/12/29 12:36:18;;;;;;;9.70;0.80;;;;;;;;;;6067846;23;20053;-66
2022/12/29 12:38:51;;;;;;;6.25;0.60;;;;;;;;;;6070466;23;20065;-66
2022/12/29 12:41:23;;;;;;;3.78;0.28;;;;;;;;;;6065977;23;20090;-66
2022/12/29 12:43:51;;;;;;;8.33;0.50;;;;;;;;;;6069596;23;20386;-66
2022/12/29 12:46:39;;;;;;;7.88;0.73;;;;;;;;;;6066982;23;20097;-66
2022/12/29 12:49:18;;;;;;;7.35;0.70;;;;;;;;;;6052150;23;20036;-66
2022/12/29 12:51:49;;;;;;;11.95;0.90;;;;;;;;;;6071698;23;20018;-67
2022/12/29 12:54:28;;;;;;;9.65;0.82;;;;;;;;;;6063123;23;20101;-66
2022/12/29 12:57:04;;;;;;;5.47;0.60;;;;;;;;;;6067355;23;20106;-67
2022/12/29 12:59:37;;;;;;;4.78;0.52;;;;;;;;;;6069370;23;20018;-68
2022/12/29 13:02:16;;;;;;;14.55;1.10;;;;;;;;;;6069868;23;20425;-66
2022/12/29 13:04:53;;;;;;;9.85;1.13;;;;;;;;;;6073888;23;20089;-67
2022/12/29 13:07:25;;;;;;;7.85;0.90;;;;;;;;;;6064383;23;20028;-63
2022/12/29 13:10:13;;;;;;;8.03;0.77;;;;;;;;;;6071174;23;20094;-62
2022/12/29 13:12:47;;;;;;;10.80;0.65;;;;;;;;;;6068496;23;20018;-63
2022/12/29 13:15:20;;;;;;;9.95;0.80;;;;;;;;;;6062096;23;20018;-63
2022/12/29 13:17:52;;;;;;;3.60;0.40;;;;;;;;;;6073696;23;20122;-63
2022/12/29 13:20:26;;;;;;;6.22;0.82;;;;;;;;;;6042536;23;20492;-69
2022/12/29 13:22:56;;;;;;;6.23;1.03;;;;;;;;;;6062874;23;20044;-63
2022/12/29 13:25:27;;;;;;;5.22;0.57;;;;;;;;;;6068453;23;20014;-63
2022/12/29 13:28:01;;;;;;;5.30;0.65;;;;;;;;;;6068741;23;20547;-63
2022/12/29 13:30:31;;;;;;;6.43;0.75;;;;;;;;;;6071630;23;20386;-63
2022/12/29 13:33:05;;;;;;;8.25;0.77;;;;;;;;;;6065102;23;20340;-63
2022/12/29 13:35:39;;;;;;;5.97;0.73;;;;;;;;;;6067463;23;20655;-65
2022/12/29 13:38:11;;;;;;;3.03;0.60;;;;;;;;;;6067819;23;20352;-67
2022/12/29 13:40:40;;;;;;;3.72;0.40;;;;;;;;;;6070264;23;20018;-68
2022/12/29 13:43:09;;;;;;;5.47;0.85;;;;;;;;;;6061311;23;20503;-65
2022/12/29 13:45:37;;;;;;;4.80;0.40;;;;;;;;;;6071357;23;20042;-68
2022/12/29 13:48:07;;;;;;;10.27;1.20;;;;;;;;;;6063919;23;20019;-68
2022/12/29 13:50:36;;;;;;;6.18;0.63;;;;;;;;;;6061611;23;20330;-57
2022/12/29 13:53:09;;;;;;;7.43;1.20;;;;;;;;;;6072776;23;20057;-68
2022/12/29 13:55:40;;;;;;;6.25;1.30;;;;;;;;;;6061503;23;20109;-67
2022/12/29 13:58:13;;;;;;;7.05;0.60;;;;;;;;;;6067953;23;20098;-67
2022/12/29 14:00:46;;;;;;;8.03;0.77;;;;;;;;;;6061527;23;20022;-68
2022/12/29 14:03:20;;;;;;;8.80;0.98;;;;;;;;;;6069539;23;20015;-67
2022/12/29 14:06:05;;;;;;;8.88;1.02;;;;;;;;;;6048279;23;20018;-68
2022/12/29 14:08:41;;;;;;;6.75;0.63;;;;;;;;;;6068152;23;20019;-68
2022/12/29 14:11:10;;;;;;;13.68;1.17;;;;;;;;;;6077313;23;20750;-68
2022/12/29 14:13:39;;;;;;;6.93;0.73;;;;;;;;;;6061589;23;20259;-68
2022/12/29 14:16:07;;;;;;;7.90;1.05;;;;;;;;;;6069021;23;20541;-63
2022/12/29 14:18:41;;;;;;;9.77;1.25;;;;;;;;;;6061654;23;20050;-68
2022/12/29 14:21:19;;;;;;;9.65;1.52;;;;;;;;;;6070742;23;20026;-68
2022/12/29 14:23:49;;;;;;;7.60;0.82;;;;;;;;;;6068388;23;20097;-68
2022/12/29 14:26:19;;;;;;;8.30;0.80;;;;;;;;;;6062377;23;20453;-68
2022/12/29 14:28:47;;;;;;;5.75;0.90;;;;;;;;;;6073457;23;20387;-67
2022/12/29 14:31:40;;;;;;;5.63;0.82;;;;;;;;;;6063769;23;20019;-67
2022/12/29 14:34:16;;;;;;;3.80;0.45;;;;;;;;;;6066874;23;20018;-67
2022/12/29 14:36:54;;;;;;;6.50;0.63;;;;;;;;;;6067592;23;20101;-67
2022/12/29 14:39:30;;;;;;;6.50;0.83;;;;;;;;;;6061837;23;20116;-67
2022/12/29 14:42:00;;;;;;;6.13;0.65;;;;;;;;;;6071452;23;20053;-67
2022/12/29 14:44:28;;;;;;;7.85;0.70;;;;;;;;;;6062667;23;20101;-68
2022/12/29 14:46:57;;;;;;;8.27;0.80;;;;;;;;;;6063622;23;20053;-68
2022/12/29 14:49:26;;;;;;;6.35;0.75;;;;;;;;;;6062543;23;20035;-69
2022/12/29 14:52:04;;;;;;;6.00;0.50;;;;;;;;;;6046289;23;20312;-68
2022/12/29 14:54:42;;;;;;;5.50;0.32;;;;;;;;;;6061511;23;20250;-67
2022/12/29 14:57:16;;;;;;;3.78;0.50;;;;;;;;;;6062987;23;20038;-67
2022/12/29 14:59:44;;;;;;;3.97;0.40;;;;;;;;;;6070545;23;20046;-67
2022/12/29 15:02:15;;;;;;;5.72;0.57;;;;;;;;;;6064520;23;20015;-67
2022/12/29 15:04:44;;;;;;;7.43;0.73;;;;;;;;;;6050208;23;20391;-67
2022/12/29 15:07:12;;;;;;;7.05;0.80;;;;;;;;;;6064654;23;20279;-67
2022/12/29 15:09:49;;;;;;;6.18;0.75;;;;;;;;;;6069563;23;20101;-67
2022/12/29 15:12:21;;;;;;;3.47;0.60;;;;;;;;;;6067826;23;20354;-66
2022/12/29 15:14:50;;;;;;;7.82;0.90;;;;;;;;;;6065799;23;20085;-67
2022/12/29 15:17:28;;;;;;;8.60;0.60;;;;;;;;;;6075013;23;20093;-67
2022/12/29 15:19:57;;;;;;;6.38;0.88;;;;;;;;;;6063545;23;20018;-66
2022/12/29 15:22:25;;;;;;;5.28;0.68;;;;;;;;;;6068345;23;20025;-67
2022/12/29 15:24:54;;;;;;;6.70;0.70;;;;;;;;;;6065374;23;20074;-67
2022/12/29 15:27:23;;;;;;;10.68;1.00;;;;;;;;;;6074791;23;20046;-67
2022/12/29 15:29:56;;;;;;;7.77;0.77;;;;;;;;;;6063933;23;20045;-67
2022/12/29 15:32:25;;;;;;;7.15;0.60;;;;;;;;;;6064379;23;20015;-67
2022/12/29 15:34:54;;;;;;;9.55;0.55;;;;;;;;;;6078778;23;20442;-67
2022/12/29 15:37:23;;;;;;;6.65;0.50;;;;;;;;;;6063515;23;20046;-68
2022/12/29 15:39:51;;;;;;;8.45;0.85;;;;;;;;;;6070490;23;20483;-68